createdAt,value
2023-04-16T00:00:44.841Z,5.50
2023-04-16T00:06:06.280Z,5.90
2023-04-16T00:11:10.497Z,5.60
2023-04-16T00:16:13.594Z,5.30
2023-04-16T00:21:16.420Z,3.90
2023-04-16T00:26:19.191Z,5.30
2023-04-16T00:31:51.215Z,3.90
2023-04-16T00:36:53.994Z,5.20
2023-04-16T00:41:57.185Z,4.20
2023-04-16T00:46:59.994Z,4.90
2023-04-16T00:52:03.514Z,5.00
2023-04-16T00:57:06.294Z,4.00
2023-04-16T01:02:09.303Z,4.20
2023-04-16T01:07:12.251Z,3.60
2023-04-16T01:12:15.166Z,5.10
2023-04-16T01:17:17.997Z,5.10
2023-04-16T01:22:20.823Z,5.10
2023-04-16T01:27:23.661Z,5.00
2023-04-16T01:32:26.440Z,4.10
2023-04-16T01:37:29.267Z,4.10
2023-04-16T01:42:32.253Z,4.70
2023-04-16T01:47:35.108Z,4.40
2023-04-16T01:52:38.050Z,3.90
2023-04-16T01:57:40.831Z,4.40
2023-04-16T02:02:43.783Z,4.60
2023-04-16T02:07:46.640Z,5.40
2023-04-16T02:12:49.413Z,5.10
2023-04-16T02:17:57.001Z,7.20
2023-04-16T02:23:00.508Z,5.70
2023-04-16T02:28:03.249Z,5.20
2023-04-16T02:33:07.559Z,5.10
2023-04-16T02:38:10.509Z,5.30
2023-04-16T02:43:13.231Z,4.40
2023-04-16T02:48:16.000Z,5.40
2023-04-16T02:53:18.941Z,6.40
2023-04-16T02:58:24.093Z,6.50
2023-04-16T03:03:26.967Z,7.20
2023-04-16T03:08:29.816Z,6.80
2023-04-16T03:13:32.634Z,7.40
2023-04-16T03:18:35.459Z,8.40
2023-04-16T03:23:38.323Z,7.60
2023-04-16T03:28:41.097Z,7.40
2023-04-16T03:33:43.873Z,7.80
2023-04-16T03:38:46.710Z,8.60
2023-04-16T03:43:49.438Z,8.20
2023-04-16T03:48:52.210Z,8.30
2023-04-16T03:53:55.229Z,8.70
2023-04-16T03:58:58.194Z,8.50
2023-04-16T04:04:01.863Z,8.80
2023-04-16T04:09:05.934Z,9.60
2023-04-16T04:14:08.809Z,9.70
2023-04-16T04:19:11.719Z,9.10
2023-04-16T04:24:14.530Z,8.60
2023-04-16T04:29:17.352Z,10.10
2023-04-16T04:34:20.166Z,8.40
2023-04-16T04:39:23.583Z,9.30
2023-04-16T04:44:26.491Z,10.70
2023-04-16T04:49:30.544Z,11.40
2023-04-16T04:54:33.412Z,10.70
2023-04-16T04:59:36.314Z,10.50
2023-04-16T05:04:39.228Z,11.30
2023-04-16T05:09:42.153Z,10.10
2023-04-16T05:14:44.982Z,10.70
2023-04-16T05:19:48.340Z,10.60
2023-04-16T05:24:51.106Z,11.00
2023-04-16T05:29:53.951Z,10.10
2023-04-16T05:34:56.697Z,10.50
2023-04-16T05:39:59.438Z,10.90
2023-04-16T05:45:04.862Z,9.40
2023-04-16T05:50:09.381Z,9.20
2023-04-16T05:55:12.371Z,9.40
2023-04-16T06:00:15.426Z,8.40
2023-04-16T06:05:18.802Z,10.90
2023-04-16T06:10:21.652Z,9.30
2023-04-16T06:15:24.457Z,8.90
2023-04-16T06:20:27.345Z,7.80
2023-04-16T06:25:30.203Z,8.00
2023-04-16T06:30:33.645Z,7.60
2023-04-16T06:35:36.453Z,8.80
2023-04-16T06:40:39.182Z,9.40
2023-04-16T06:45:42.008Z,8.30
2023-04-16T06:50:45.019Z,8.80
2023-04-16T06:55:47.827Z,7.60
2023-04-16T07:00:50.628Z,7.50
2023-04-16T07:05:53.598Z,7.40
2023-04-16T07:10:56.560Z,7.50
2023-04-16T07:15:59.443Z,8.60
2023-04-16T07:21:02.232Z,7.90
2023-04-16T07:26:05.063Z,7.30
2023-04-16T07:31:08.116Z,7.50
2023-04-16T07:36:11.194Z,7.40
2023-04-16T07:41:14.793Z,7.40
2023-04-16T07:46:17.584Z,6.90
2023-04-16T07:51:20.449Z,7.30
2023-04-16T07:56:23.305Z,7.80
2023-04-16T08:01:26.307Z,7.40
2023-04-16T08:06:29.398Z,7.20
2023-04-16T08:11:32.123Z,7.90
2023-04-16T08:16:35.149Z,6.70
2023-04-16T08:21:38.152Z,6.80
2023-04-16T08:26:41.675Z,6.40
2023-04-16T08:31:44.677Z,6.60
2023-04-16T08:36:47.589Z,6.20
2023-04-16T08:41:50.519Z,6.30
2023-04-16T08:46:58.259Z,6.70
2023-04-16T08:52:01.115Z,6.50
2023-04-16T08:57:06.531Z,6.30
2023-04-16T09:02:09.603Z,6.00
2023-04-16T09:07:12.617Z,6.70
2023-04-16T09:12:15.658Z,6.10
2023-04-16T09:17:19.007Z,6.20
2023-04-16T09:22:22.031Z,6.80
2023-04-16T09:27:26.073Z,6.70
2023-04-16T09:32:29.338Z,6.30
2023-04-16T09:37:32.371Z,6.00
2023-04-16T09:42:37.314Z,6.50
2023-04-16T09:47:45.187Z,6.30
2023-04-16T09:52:51.145Z,6.60
2023-04-16T09:58:00.454Z,6.00
2023-04-16T10:03:07.077Z,6.10
2023-04-16T10:08:13.849Z,7.00
2023-04-16T10:13:17.822Z,7.00
2023-04-16T10:18:20.920Z,6.10
2023-04-16T10:23:23.931Z,6.30
2023-04-16T10:28:29.070Z,6.00
2023-04-16T10:33:34.497Z,6.20
2023-04-16T10:38:50.969Z,5.80
2023-04-16T10:43:54.175Z,6.00
2023-04-16T10:49:00.720Z,6.40
2023-04-16T10:54:05.434Z,5.30
2023-04-16T10:59:10.313Z,5.80
2023-04-16T11:04:19.485Z,5.60
2023-04-16T11:09:50.527Z,5.40
2023-04-16T11:14:55.489Z,6.60
2023-04-16T11:19:58.406Z,6.50
2023-04-16T11:25:01.296Z,5.30
2023-04-16T11:30:07.472Z,5.30
2023-04-16T11:35:17.994Z,4.80
2023-04-16T11:40:21.097Z,4.80
2023-04-16T11:45:23.820Z,4.40
2023-04-16T11:50:28.421Z,4.20
2023-04-16T11:55:31.265Z,4.30
2023-04-16T12:00:37.341Z,4.10
2023-04-16T12:05:40.795Z,3.60
2023-04-16T12:10:54.625Z,3.70
2023-04-16T12:15:57.474Z,3.10
2023-04-16T12:21:04.911Z,2.70
2023-04-16T12:26:10.599Z,2.90
2023-04-16T12:31:14.859Z,2.50
2023-04-16T12:36:19.351Z,2.50
2023-04-16T12:41:22.452Z,2.50
2023-04-16T12:46:25.330Z,2.70
2023-04-16T12:51:28.092Z,2.60
2023-04-16T12:56:31.336Z,2.40
2023-04-16T13:01:36.819Z,3.30
2023-04-16T13:06:40.581Z,3.00
2023-04-16T13:11:43.426Z,2.70
2023-04-16T13:16:46.194Z,2.50
2023-04-16T13:21:49.029Z,2.90
2023-04-16T13:26:56.449Z,2.40
2023-04-16T13:31:59.244Z,3.20
2023-04-16T13:37:01.960Z,3.30
2023-04-16T13:42:04.863Z,3.30
2023-04-16T13:47:08.107Z,2.70
2023-04-16T13:52:11.169Z,3.20
2023-04-16T13:57:14.101Z,2.90
2023-04-16T14:02:18.324Z,2.80
2023-04-16T14:07:22.629Z,2.60
2023-04-16T14:12:25.560Z,2.40
2023-04-16T14:17:28.476Z,2.40
2023-04-16T14:22:31.407Z,3.10
2023-04-16T14:27:34.437Z,2.70
2023-04-16T14:32:37.591Z,2.80
2023-04-16T14:37:41.541Z,2.40
2023-04-16T14:42:44.254Z,2.40
2023-04-16T14:47:47.905Z,2.50
2023-04-16T14:52:51.012Z,2.50
2023-04-16T14:57:53.884Z,3.20
2023-04-16T15:02:56.708Z,3.50
2023-04-16T15:08:00.592Z,3.30
2023-04-16T15:13:03.413Z,3.10
2023-04-16T15:18:06.419Z,4.00
2023-04-16T15:23:09.336Z,3.70
2023-04-16T15:28:12.061Z,3.50
2023-04-16T15:33:14.886Z,3.50
2023-04-16T15:38:18.702Z,3.90
2023-04-16T15:43:21.478Z,4.60
2023-04-16T15:48:24.682Z,5.60
2023-04-16T15:53:27.568Z,6.60
2023-04-16T15:58:30.309Z,5.80
2023-04-16T16:03:33.938Z,7.40
2023-04-16T16:08:38.328Z,6.00
2023-04-16T16:13:41.793Z,6.20
2023-04-16T16:18:44.594Z,6.10
2023-04-16T16:23:47.497Z,7.30
2023-04-16T16:28:50.224Z,7.00
2023-04-16T16:33:52.982Z,6.50
2023-04-16T16:38:56.630Z,7.20
2023-04-16T16:43:59.480Z,7.50
2023-04-16T16:49:07.028Z,7.60
2023-04-16T16:54:09.808Z,8.10
2023-04-16T16:59:12.833Z,7.40
2023-04-16T17:04:18.657Z,7.70
2023-04-16T17:09:22.987Z,8.70
2023-04-16T17:14:25.846Z,8.20
2023-04-16T17:19:29.414Z,7.60
2023-04-16T17:24:32.289Z,8.90
2023-04-16T17:29:35.259Z,8.40
2023-04-16T17:34:38.004Z,8.70
2023-04-16T17:39:41.151Z,9.30
2023-04-16T17:44:43.907Z,8.80
2023-04-16T17:49:46.756Z,9.30
2023-04-16T17:54:49.622Z,8.60
2023-04-16T17:59:52.478Z,9.60
2023-04-16T18:04:55.499Z,10.60
2023-04-16T18:09:58.484Z,9.50
2023-04-16T18:15:01.327Z,9.00
2023-04-16T18:20:07.037Z,9.00
2023-04-16T18:25:10.075Z,10.30
2023-04-16T18:30:20.044Z,10.90
2023-04-16T18:35:26.234Z,10.80
2023-04-16T18:40:29.358Z,12.90
2023-04-16T18:45:34.217Z,11.40
2023-04-16T18:50:37.423Z,13.30
2023-04-16T18:55:40.132Z,11.10
2023-04-16T19:00:42.888Z,11.70
2023-04-16T19:05:45.850Z,12.00
2023-04-16T19:10:49.732Z,11.20
2023-04-16T19:15:59.392Z,11.90
2023-04-16T19:21:02.408Z,11.10
2023-04-16T19:26:05.461Z,12.60
2023-04-16T19:31:08.817Z,13.80
2023-04-16T19:36:11.662Z,15.30
2023-04-16T19:41:14.608Z,14.00
2023-04-16T19:46:17.848Z,15.90
2023-04-16T19:51:21.072Z,17.40
2023-04-16T19:56:25.034Z,17.50
2023-04-16T20:01:28.265Z,16.10
2023-04-16T20:06:31.767Z,14.90
2023-04-16T20:11:35.512Z,17.10
2023-04-16T20:16:38.680Z,16.90
2023-04-16T20:21:43.172Z,18.50
2023-04-16T20:26:45.876Z,18.50
2023-04-16T20:31:48.761Z,20.70
2023-04-16T20:36:52.675Z,19.10
2023-04-16T20:41:58.419Z,20.10
2023-04-16T20:47:01.275Z,19.50
2023-04-16T20:52:05.603Z,18.20
2023-04-16T20:57:08.561Z,17.10
2023-04-16T21:02:11.512Z,20.00
2023-04-16T21:07:14.577Z,21.60
2023-04-16T21:12:17.342Z,20.50
2023-04-16T21:17:20.206Z,19.10
2023-04-16T21:22:23.774Z,20.00
2023-04-16T21:27:26.532Z,18.50
2023-04-16T21:32:29.338Z,18.60
2023-04-16T21:37:32.218Z,18.60
2023-04-16T21:42:39.915Z,19.40
2023-04-16T21:47:42.914Z,19.30
2023-04-16T21:52:46.815Z,18.10
2023-04-16T21:57:49.609Z,17.90
2023-04-16T22:02:56.261Z,19.20
2023-04-16T22:07:59.357Z,18.30
2023-04-16T22:13:02.180Z,18.50
2023-04-16T22:18:05.564Z,19.60
2023-04-16T22:23:08.382Z,17.70
2023-04-16T22:28:11.129Z,20.90
2023-04-16T22:33:14.001Z,18.60
2023-04-16T22:38:16.746Z,18.40
2023-04-16T22:43:19.566Z,19.50
2023-04-16T22:48:22.551Z,18.50
2023-04-16T22:53:25.647Z,19.00
2023-04-16T22:58:28.510Z,21.10
2023-04-16T23:03:32.076Z,20.40
2023-04-16T23:08:34.885Z,19.60
2023-04-16T23:13:38.210Z,19.10
2023-04-16T23:18:40.914Z,19.60
2023-04-16T23:23:43.725Z,19.80
2023-04-16T23:28:46.459Z,19.50
2023-04-16T23:33:49.238Z,20.20
2023-04-16T23:38:52.102Z,18.30
2023-04-16T23:43:54.848Z,18.90
2023-04-16T23:48:57.688Z,19.80
2023-04-16T23:54:00.525Z,19.70
2023-04-16T23:59:03.410Z,20.80
